createdAt,value
2019-04-11T00:02:40.560Z,4.62
2019-04-11T00:07:44.642Z,4.78
2019-04-11T00:12:48.552Z,4.97
2019-04-11T00:17:52.340Z,5.00
2019-04-11T00:22:55.990Z,5.30
2019-04-11T00:27:59.791Z,4.90
2019-04-11T00:33:03.524Z,5.17
2019-04-11T00:38:07.711Z,4.87
2019-04-11T00:43:11.602Z,4.72
2019-04-11T00:48:15.415Z,5.40
2019-04-11T00:53:20.400Z,5.17
2019-04-11T00:58:24.062Z,5.22
2019-04-11T01:03:28.382Z,4.72
2019-04-11T01:08:32.564Z,5.10
2019-04-11T01:13:45.640Z,5.17
2019-04-11T01:18:42.392Z,5.42
2019-04-11T01:23:47.070Z,4.95
2019-04-11T01:28:51.960Z,4.90
2019-04-11T01:33:56.380Z,5.00
2019-04-11T01:39:01.525Z,5.72
2019-04-11T01:44:07.096Z,5.40
2019-04-11T01:49:14.286Z,5.70
2019-04-11T01:54:18.006Z,5.40
2019-04-11T01:59:21.633Z,5.12
2019-04-11T02:04:46.044Z,4.55
2019-04-11T02:09:50.520Z,5.33
2019-04-11T02:14:55.496Z,5.20
2019-04-11T02:19:59.377Z,5.40
2019-04-11T02:25:04.517Z,4.97
2019-04-11T02:30:10.993Z,5.22
2019-04-11T02:35:15.408Z,5.50
2019-04-11T02:40:20.204Z,5.20
2019-04-11T02:45:39.801Z,5.33
2019-04-11T02:50:32.186Z,5.37
2019-04-11T02:55:37.686Z,5.17
2019-04-11T03:00:42.220Z,5.28
2019-04-11T03:05:47.031Z,5.45
2019-04-11T03:10:51.455Z,4.85
2019-04-11T03:16:08.193Z,5.05
2019-04-11T03:21:06.134Z,5.30
2019-04-11T03:26:07.652Z,5.17
2019-04-11T03:31:53.250Z,5.37
2019-04-11T03:41:38.492Z,4.65
2019-04-11T03:46:42.099Z,4.58
2019-04-11T03:51:34.068Z,4.87
2019-04-11T03:56:38.984Z,4.97
2019-04-11T04:01:44.377Z,4.83
2019-04-11T04:06:49.775Z,5.17
2019-04-11T04:11:56.956Z,4.90
2019-04-11T04:17:10.535Z,5.00
2019-04-11T04:22:16.592Z,4.70
2019-04-11T04:27:23.319Z,4.92
2019-04-11T04:32:28.074Z,5.08
2019-04-11T04:37:34.695Z,4.92
2019-04-11T04:42:44.406Z,5.20
2019-04-11T04:47:51.416Z,5.28
2019-04-11T04:52:49.322Z,4.83
2019-04-11T04:57:55.481Z,4.33
2019-04-11T05:03:01.426Z,4.50
2019-04-11T05:08:05.967Z,4.53
2019-04-11T05:13:10.034Z,5.10
2019-04-11T05:18:15.603Z,5.28
2019-04-11T05:23:18.905Z,5.30
2019-04-11T05:28:23.372Z,4.92
2019-04-11T05:33:27.398Z,6.28
2019-04-11T05:38:31.161Z,18.40
2019-04-11T05:43:38.635Z,15.68
2019-04-11T05:48:45.779Z,14.68
2019-04-11T05:53:52.635Z,15.13
2019-04-11T05:58:57.783Z,13.35
2019-04-11T06:04:03.244Z,13.08
2019-04-11T06:09:11.694Z,13.25
2019-04-11T06:14:22.885Z,12.35
2019-04-11T06:19:28.338Z,11.68
2019-04-11T06:24:36.711Z,10.48
2019-04-11T06:29:43.075Z,9.95
2019-04-11T06:35:06.035Z,10.45
2019-04-11T06:40:29.763Z,9.90
2019-04-11T06:45:49.943Z,9.45
2019-04-11T06:51:13.621Z,9.28
2019-04-11T06:56:25.385Z,9.10
2019-04-11T07:01:30.583Z,9.83
2019-04-11T07:06:35.751Z,8.43
2019-04-11T07:11:52.960Z,8.53
2019-04-11T07:17:15.470Z,7.22
2019-04-11T07:22:36.919Z,7.90
2019-04-11T07:27:42.952Z,7.33
2019-04-11T07:32:47.732Z,7.75
2019-04-11T07:37:51.522Z,7.15
2019-04-11T07:43:03.797Z,7.15
2019-04-11T07:48:06.796Z,6.97
2019-04-11T07:53:11.106Z,6.60
2019-04-11T07:58:21.909Z,6.95
2019-04-11T08:03:28.352Z,6.97
2019-04-11T08:08:49.613Z,7.00
2019-04-11T08:14:04.230Z,6.22
2019-04-11T08:19:22.517Z,6.22
2019-04-11T08:24:36.617Z,6.40
2019-04-11T08:29:40.524Z,6.33
2019-04-11T08:34:48.135Z,6.20
2019-04-11T08:39:53.384Z,6.47
2019-04-11T08:44:57.617Z,6.55
2019-04-11T08:50:02.222Z,6.17
2019-04-11T08:55:08.880Z,5.40
2019-04-11T09:00:34.690Z,5.25
2019-04-11T09:05:40.867Z,5.62
2019-04-11T09:11:04.634Z,5.37
2019-04-11T09:16:21.755Z,5.47
2019-04-11T09:21:44.527Z,5.30
2019-04-11T09:27:06.601Z,5.17
2019-04-11T09:32:11.878Z,4.92
2019-04-11T09:37:18.443Z,4.90
2019-04-11T09:42:38.902Z,4.95
2019-04-11T09:47:44.027Z,5.22
2019-04-11T09:52:58.012Z,4.78
2019-04-11T09:58:02.916Z,4.78
2019-04-11T10:03:08.713Z,5.47
2019-04-11T10:08:30.965Z,4.97
2019-04-11T10:13:42.761Z,4.33
2019-04-11T10:18:51.531Z,4.85
2019-04-11T10:24:07.269Z,4.60
2019-04-11T10:29:30.398Z,5.37
2019-04-11T10:34:38.609Z,4.10
2019-04-11T10:39:53.550Z,4.80
2019-04-11T10:45:02.727Z,4.95
2019-04-11T10:50:15.582Z,4.72
2019-04-11T10:55:23.251Z,4.92
2019-04-11T11:00:31.610Z,5.37
2019-04-11T11:05:40.383Z,5.40
2019-04-11T11:10:43.894Z,4.42
2019-04-11T11:15:51.705Z,4.33
2019-04-11T11:20:58.827Z,4.30
2019-04-11T11:26:02.819Z,4.60
2019-04-11T11:31:08.302Z,4.67
2019-04-11T11:36:17.227Z,4.78
2019-04-11T11:41:22.634Z,4.47
2019-04-11T11:46:44.625Z,4.62
2019-04-11T11:51:58.070Z,4.10
2019-04-11T11:57:02.866Z,4.47
2019-04-11T12:02:08.499Z,4.15
2019-04-11T12:07:14.708Z,4.10
2019-04-11T12:12:25.755Z,3.87
2019-04-11T12:17:49.099Z,4.33
2019-04-11T12:22:53.677Z,4.00
2019-04-11T12:28:07.637Z,3.83
2019-04-11T12:33:14.854Z,4.08
2019-04-11T12:38:36.256Z,4.22
2019-04-11T12:43:41.477Z,4.10
2019-04-11T12:48:45.118Z,4.30
2019-04-11T12:53:52.977Z,4.33
2019-04-11T12:58:57.119Z,4.20
2019-04-11T13:04:02.292Z,4.25
2019-04-11T13:09:10.123Z,3.85
2019-04-11T13:14:15.228Z,4.00
2019-04-11T13:19:26.145Z,4.42
2019-04-11T13:24:43.287Z,4.35
2019-04-11T13:29:54.882Z,4.33
2019-04-11T13:35:11.874Z,4.05
2019-04-11T13:40:22.810Z,3.52
2019-04-11T13:45:28.070Z,4.28
2019-04-11T13:50:33.427Z,3.95
2019-04-11T13:55:37.281Z,4.37
2019-04-11T14:00:42.949Z,4.37
2019-04-11T14:05:47.099Z,4.37
2019-04-11T14:11:08.826Z,4.20
2019-04-11T14:16:14.123Z,4.25
2019-04-11T14:21:24.994Z,4.60
2019-04-11T14:26:35.888Z,4.37
2019-04-11T14:31:44.105Z,4.80
2019-04-11T14:36:49.216Z,4.60
2019-04-11T14:42:06.441Z,4.70
2019-04-11T14:47:14.268Z,3.90
2019-04-11T14:52:35.363Z,4.53
2019-04-11T14:57:56.677Z,4.20
2019-04-11T15:03:20.442Z,3.87
2019-04-11T15:08:31.231Z,3.92
2019-04-11T15:13:35.382Z,4.10
2019-04-11T15:18:40.486Z,4.30
2019-04-11T15:23:44.065Z,4.40
2019-04-11T15:28:49.184Z,4.58
2019-04-11T15:33:57.151Z,4.15
2019-04-11T15:39:18.539Z,4.10
2019-04-11T15:44:41.793Z,3.87
2019-04-11T15:49:46.972Z,4.17
2019-04-11T15:55:08.521Z,3.60
2019-04-11T16:00:29.501Z,4.08
2019-04-11T16:05:43.814Z,3.77
2019-04-11T16:10:51.825Z,3.67
2019-04-11T16:16:07.014Z,3.75
2019-04-11T16:21:18.405Z,3.90
2019-04-11T16:26:16.554Z,3.92
2019-04-11T16:31:20.315Z,3.90
2019-04-11T16:36:27.239Z,3.70
2019-04-11T16:41:48.382Z,3.50
2019-04-11T16:47:08.177Z,4.08
2019-04-11T16:52:10.667Z,3.90
2019-04-11T16:57:14.307Z,3.72
2019-04-11T17:02:18.094Z,3.60
2019-04-11T17:07:29.259Z,3.45
2019-04-11T17:12:32.749Z,3.80
2019-04-11T17:17:36.270Z,4.00
2019-04-11T17:22:39.774Z,4.05
2019-04-11T17:27:43.237Z,3.60
2019-04-11T17:32:46.781Z,3.33
2019-04-11T17:37:50.280Z,3.70
2019-04-11T17:42:54.125Z,3.50
2019-04-11T17:47:58.141Z,3.75
2019-04-11T17:53:01.668Z,3.50
2019-04-11T17:58:05.211Z,3.80
2019-04-11T18:03:11.799Z,4.15
2019-04-11T18:08:13.921Z,3.87
2019-04-11T18:13:17.424Z,3.83
2019-04-11T18:18:20.895Z,4.50
2019-04-11T18:23:24.441Z,4.20
2019-04-11T18:28:27.992Z,4.47
2019-04-11T18:33:32.325Z,3.98
2019-04-11T18:38:36.123Z,4.15
2019-04-11T18:43:39.703Z,4.45
2019-04-11T18:48:43.176Z,3.60
2019-04-11T18:53:46.647Z,3.90
2019-04-11T18:58:50.133Z,3.37
2019-04-11T19:03:53.847Z,3.83
2019-04-11T19:08:57.409Z,3.75
2019-04-11T19:14:00.904Z,4.25
2019-04-11T19:19:04.638Z,3.72
2019-04-11T19:24:10.842Z,3.75
2019-04-11T19:29:13.381Z,3.80
2019-04-11T19:34:16.923Z,4.20
2019-04-11T19:39:23.098Z,4.33
2019-04-11T19:44:25.711Z,4.05
2019-04-11T19:49:29.675Z,4.25
2019-04-11T19:54:33.616Z,3.80
2019-04-11T19:59:37.239Z,4.55
2019-04-11T20:04:40.721Z,4.03
2019-04-11T20:09:44.265Z,3.75
2019-04-11T20:14:47.815Z,3.70
2019-04-11T20:20:00.844Z,4.00
2019-04-11T20:24:56.666Z,3.90
2019-04-11T20:30:00.201Z,4.37
2019-04-11T20:35:04.474Z,4.28
2019-04-11T20:40:08.611Z,3.90
2019-04-11T20:45:12.452Z,4.22
2019-04-11T20:50:16.558Z,4.20
2019-04-11T20:55:20.047Z,4.20
2019-04-11T21:00:23.522Z,4.08
2019-04-11T21:05:30.546Z,4.25
2019-04-11T21:10:34.056Z,3.75
2019-04-11T21:15:37.566Z,4.20
2019-04-11T21:20:41.027Z,4.08
2019-04-11T21:25:44.582Z,3.58
2019-04-11T21:30:48.091Z,4.08
2019-04-11T21:35:51.633Z,4.53
2019-04-11T21:40:55.139Z,4.62
2019-04-11T21:45:59.051Z,4.37
2019-04-11T21:51:02.534Z,4.47
2019-04-11T21:56:06.680Z,4.72
2019-04-11T22:01:13.302Z,4.10
2019-04-11T22:06:16.774Z,4.60
2019-04-11T22:11:20.247Z,4.55
2019-04-11T22:16:23.736Z,4.05
2019-04-11T22:21:27.213Z,4.25
2019-04-11T22:26:30.775Z,4.15
2019-04-11T22:31:34.330Z,4.70
2019-04-11T22:36:37.934Z,4.25
2019-04-11T22:41:41.416Z,4.87
2019-04-11T22:46:44.910Z,4.50
2019-04-11T22:51:48.383Z,4.35
2019-04-11T22:56:51.883Z,4.35
2019-04-11T23:01:57.213Z,4.70
2019-04-11T23:07:00.851Z,4.33
2019-04-11T23:12:04.334Z,4.53
2019-04-11T23:17:07.864Z,4.15
2019-04-11T23:22:12.177Z,4.70
2019-04-11T23:27:16.332Z,4.62
2019-04-11T23:32:21.206Z,4.47
2019-04-11T23:37:25.053Z,4.30
2019-04-11T23:42:28.555Z,4.33
2019-04-11T23:47:32.101Z,4.40
2019-04-11T23:52:35.663Z,4.20
2019-04-11T23:57:39.143Z,4.15
